sensor_id;sensor_type;location;lat;lon;timestamp;pressure;altitude;pressure_sealevel;temperature;humidity
34205;BME280;20471;49.680;20.074;2023-04-29T00:00:03;97007.39;;;6.76;61.07
34205;BME280;20471;49.680;20.074;2023-04-29T00:02:51;97012.30;;;6.74;61.28
34205;BME280;20471;49.680;20.074;2023-04-29T00:05:18;97014.52;;;6.73;61.45
34205;BME280;20471;49.680;20.074;2023-04-29T00:07:44;97011.11;;;6.73;61.58
34205;BME280;20471;49.680;20.074;2023-04-29T00:10:11;97011.67;;;6.72;61.71
34205;BME280;20471;49.680;20.074;2023-04-29T00:12:40;97010.29;;;6.70;61.88
34205;BME280;20471;49.680;20.074;2023-04-29T00:15:07;97012.88;;;6.69;61.84
34205;BME280;20471;49.680;20.074;2023-04-29T00:17:34;97010.58;;;6.69;62.01
34205;BME280;20471;49.680;20.074;2023-04-29T00:20:02;97009.69;;;6.72;62.01
34205;BME280;20471;49.680;20.074;2023-04-29T00:22:29;97009.70;;;6.73;62.05
34205;BME280;20471;49.680;20.074;2023-04-29T00:24:55;97009.34;;;6.75;62.06
34205;BME280;20471;49.680;20.074;2023-04-29T00:27:22;97011.72;;;6.77;61.94
34205;BME280;20471;49.680;20.074;2023-04-29T00:29:49;97015.86;;;6.78;62.09
34205;BME280;20471;49.680;20.074;2023-04-29T00:32:15;97013.80;;;6.79;62.25
34205;BME280;20471;49.680;20.074;2023-04-29T00:34:42;97009.67;;;6.79;62.23
34205;BME280;20471;49.680;20.074;2023-04-29T00:37:09;97007.77;;;6.79;62.30
34205;BME280;20471;49.680;20.074;2023-04-29T00:39:35;97006.39;;;6.81;62.32
34205;BME280;20471;49.680;20.074;2023-04-29T00:42:02;97004.34;;;6.81;62.39
34205;BME280;20471;49.680;20.074;2023-04-29T00:44:29;97004.65;;;6.80;62.43
34205;BME280;20471;49.680;20.074;2023-04-29T00:46:56;97001.52;;;6.81;62.33
34205;BME280;20471;49.680;20.074;2023-04-29T00:49:24;97002.06;;;6.82;62.54
34205;BME280;20471;49.680;20.074;2023-04-29T00:51:53;96999.78;;;6.81;62.79
34205;BME280;20471;49.680;20.074;2023-04-29T00:54:21;97004.40;;;6.80;62.78
34205;BME280;20471;49.680;20.074;2023-04-29T00:56:49;97000.41;;;6.81;62.86
34205;BME280;20471;49.680;20.074;2023-04-29T00:59:16;96996.97;;;6.83;63.00
34205;BME280;20471;49.680;20.074;2023-04-29T01:01:43;96994.12;;;6.84;62.98
34205;BME280;20471;49.680;20.074;2023-04-29T01:04:10;96992.56;;;6.85;63.12
34205;BME280;20471;49.680;20.074;2023-04-29T01:12:27;96994.05;;;6.85;63.58
34205;BME280;20471;49.680;20.074;2023-04-29T01:15:31;96996.23;;;6.79;63.70
34205;BME280;20471;49.680;20.074;2023-04-29T01:18:03;96996.16;;;6.73;63.66
34205;BME280;20471;49.680;20.074;2023-04-29T01:20:30;96996.58;;;6.74;63.73
34205;BME280;20471;49.680;20.074;2023-04-29T01:22:58;96994.64;;;6.76;63.86
34205;BME280;20471;49.680;20.074;2023-04-29T01:25:24;96991.27;;;6.79;63.94
34205;BME280;20471;49.680;20.074;2023-04-29T01:33:28;96997.73;;;6.87;64.11
34205;BME280;20471;49.680;20.074;2023-04-29T01:39:13;96995.34;;;6.91;64.44
34205;BME280;20471;49.680;20.074;2023-04-29T01:41:48;96994.63;;;6.89;64.46
34205;BME280;20471;49.680;20.074;2023-04-29T01:44:22;96992.36;;;6.91;64.52
34205;BME280;20471;49.680;20.074;2023-04-29T01:46:51;96989.20;;;6.94;64.56
34205;BME280;20471;49.680;20.074;2023-04-29T01:49:20;96992.64;;;6.95;64.70
34205;BME280;20471;49.680;20.074;2023-04-29T01:51:47;96990.83;;;6.95;64.79
34205;BME280;20471;49.680;20.074;2023-04-29T01:54:13;96985.70;;;6.94;64.72
34205;BME280;20471;49.680;20.074;2023-04-29T01:56:40;96987.36;;;6.96;64.88
34205;BME280;20471;49.680;20.074;2023-04-29T01:59:07;96985.89;;;6.96;64.91
34205;BME280;20471;49.680;20.074;2023-04-29T02:01:33;96985.63;;;6.96;65.06
34205;BME280;20471;49.680;20.074;2023-04-29T02:04:01;96987.22;;;6.98;65.09
34205;BME280;20471;49.680;20.074;2023-04-29T02:06:27;96982.23;;;7.00;65.15
34205;BME280;20471;49.680;20.074;2023-04-29T02:08:57;96982.88;;;7.02;65.30
34205;BME280;20471;49.680;20.074;2023-04-29T02:11:24;96983.48;;;7.04;65.35
34205;BME280;20471;49.680;20.074;2023-04-29T02:13:50;96979.02;;;7.04;65.41
34205;BME280;20471;49.680;20.074;2023-04-29T02:16:17;96975.02;;;7.04;65.55
34205;BME280;20471;49.680;20.074;2023-04-29T02:18:44;96974.34;;;7.03;65.47
34205;BME280;20471;49.680;20.074;2023-04-29T02:21:10;96972.38;;;7.05;65.59
34205;BME280;20471;49.680;20.074;2023-04-29T02:23:37;96970.94;;;7.06;65.66
34205;BME280;20471;49.680;20.074;2023-04-29T02:26:04;96970.73;;;7.07;65.72
34205;BME280;20471;49.680;20.074;2023-04-29T02:28:32;96969.05;;;7.08;65.75
34205;BME280;20471;49.680;20.074;2023-04-29T02:30:59;96971.53;;;7.08;65.86
34205;BME280;20471;49.680;20.074;2023-04-29T02:33:26;96972.95;;;7.10;65.91
34205;BME280;20471;49.680;20.074;2023-04-29T02:35:53;96975.30;;;7.13;65.91
34205;BME280;20471;49.680;20.074;2023-04-29T02:38:19;96971.02;;;7.16;66.16
34205;BME280;20471;49.680;20.074;2023-04-29T02:40:46;96969.73;;;7.15;66.31
34205;BME280;20471;49.680;20.074;2023-04-29T02:43:13;96970.95;;;7.14;66.46
34205;BME280;20471;49.680;20.074;2023-04-29T02:45:39;96970.11;;;7.12;66.70
34205;BME280;20471;49.680;20.074;2023-04-29T02:48:06;96962.36;;;7.09;66.86
34205;BME280;20471;49.680;20.074;2023-04-29T02:50:33;96962.14;;;7.06;67.04
34205;BME280;20471;49.680;20.074;2023-04-29T02:52:59;96960.52;;;7.05;67.00
34205;BME280;20471;49.680;20.074;2023-04-29T02:55:26;96958.73;;;7.06;67.10
34205;BME280;20471;49.680;20.074;2023-04-29T02:57:53;96961.39;;;7.10;67.12
34205;BME280;20471;49.680;20.074;2023-04-29T03:00:20;96958.13;;;7.15;66.99
34205;BME280;20471;49.680;20.074;2023-04-29T03:02:46;96961.17;;;7.23;67.01
34205;BME280;20471;49.680;20.074;2023-04-29T03:05:13;96960.19;;;7.26;67.21
34205;BME280;20471;49.680;20.074;2023-04-29T03:07:40;96954.66;;;7.23;67.28
34205;BME280;20471;49.680;20.074;2023-04-29T03:10:07;96953.97;;;7.23;67.20
34205;BME280;20471;49.680;20.074;2023-04-29T03:12:34;96956.57;;;7.24;67.16
34205;BME280;20471;49.680;20.074;2023-04-29T03:15:01;96956.55;;;7.27;67.41
34205;BME280;20471;49.680;20.074;2023-04-29T03:17:27;96958.33;;;7.27;67.56
34205;BME280;20471;49.680;20.074;2023-04-29T03:19:54;96958.58;;;7.25;67.66
34205;BME280;20471;49.680;20.074;2023-04-29T03:22:21;96955.89;;;7.25;67.76
34205;BME280;20471;49.680;20.074;2023-04-29T03:24:47;96956.02;;;7.25;67.99
34205;BME280;20471;49.680;20.074;2023-04-29T03:27:14;96959.77;;;7.26;68.07
34205;BME280;20471;49.680;20.074;2023-04-29T03:29:41;96961.96;;;7.25;68.17
34205;BME280;20471;49.680;20.074;2023-04-29T03:32:08;96961.89;;;7.26;68.17
34205;BME280;20471;49.680;20.074;2023-04-29T03:34:34;96966.77;;;7.27;68.31
34205;BME280;20471;49.680;20.074;2023-04-29T03:37:01;96966.92;;;7.27;68.40
34205;BME280;20471;49.680;20.074;2023-04-29T03:39:28;96969.04;;;7.28;68.35
34205;BME280;20471;49.680;20.074;2023-04-29T03:41:57;96971.54;;;7.31;68.56
34205;BME280;20471;49.680;20.074;2023-04-29T03:44:25;96974.15;;;7.33;68.66
34205;BME280;20471;49.680;20.074;2023-04-29T03:46:51;96975.73;;;7.35;68.66
34205;BME280;20471;49.680;20.074;2023-04-29T03:49:18;96975.73;;;7.37;68.72
34205;BME280;20471;49.680;20.074;2023-04-29T03:51:45;96975.21;;;7.41;68.67
34205;BME280;20471;49.680;20.074;2023-04-29T03:54:12;96976.45;;;7.43;68.73
34205;BME280;20471;49.680;20.074;2023-04-29T03:56:38;96975.02;;;7.44;68.84
34205;BME280;20471;49.680;20.074;2023-04-29T03:59:06;96975.27;;;7.46;68.91
34205;BME280;20471;49.680;20.074;2023-04-29T04:01:32;96978.01;;;7.47;69.24
34205;BME280;20471;49.680;20.074;2023-04-29T04:03:59;96980.80;;;7.46;69.23
34205;BME280;20471;49.680;20.074;2023-04-29T04:06:26;96982.23;;;7.48;69.38
34205;BME280;20471;49.680;20.074;2023-04-29T04:08:52;96982.91;;;7.49;69.60
34205;BME280;20471;49.680;20.074;2023-04-29T04:11:19;96983.98;;;7.49;69.77
34205;BME280;20471;49.680;20.074;2023-04-29T04:13:46;96984.39;;;7.50;69.87
34205;BME280;20471;49.680;20.074;2023-04-29T04:16:12;96980.59;;;7.50;70.04
34205;BME280;20471;49.680;20.074;2023-04-29T04:18:39;96980.89;;;7.52;70.23
34205;BME280;20471;49.680;20.074;2023-04-29T04:21:11;96981.32;;;7.54;70.36
34205;BME280;20471;49.680;20.074;2023-04-29T04:23:38;96979.55;;;7.57;70.48
34205;BME280;20471;49.680;20.074;2023-04-29T04:26:06;96979.08;;;7.59;70.64
34205;BME280;20471;49.680;20.074;2023-04-29T04:28:33;96977.11;;;7.62;70.77
34205;BME280;20471;49.680;20.074;2023-04-29T04:30:59;96975.30;;;7.64;70.88
34205;BME280;20471;49.680;20.074;2023-04-29T04:33:26;96976.67;;;7.65;70.91
34205;BME280;20471;49.680;20.074;2023-04-29T04:35:53;96975.31;;;7.67;70.98
34205;BME280;20471;49.680;20.074;2023-04-29T04:38:19;96972.55;;;7.70;71.15
34205;BME280;20471;49.680;20.074;2023-04-29T04:40:48;96972.45;;;7.72;71.22
34205;BME280;20471;49.680;20.074;2023-04-29T04:43:14;96971.30;;;7.73;71.36
34205;BME280;20471;49.680;20.074;2023-04-29T04:45:42;96972.42;;;7.74;71.24
34205;BME280;20471;49.680;20.074;2023-04-29T04:48:09;96973.63;;;7.76;71.25
34205;BME280;20471;49.680;20.074;2023-04-29T04:50:35;96970.70;;;7.77;71.45
34205;BME280;20471;49.680;20.074;2023-04-29T04:53:02;96971.00;;;7.78;71.59
34205;BME280;20471;49.680;20.074;2023-04-29T04:55:29;96971.36;;;7.80;71.64
34205;BME280;20471;49.680;20.074;2023-04-29T04:57:56;96971.09;;;7.82;71.79
34205;BME280;20471;49.680;20.074;2023-04-29T05:00:23;96969.64;;;7.84;71.83
34205;BME280;20471;49.680;20.074;2023-04-29T05:02:50;96967.69;;;7.86;71.95
34205;BME280;20471;49.680;20.074;2023-04-29T05:05:17;96968.52;;;7.85;72.16
34205;BME280;20471;49.680;20.074;2023-04-29T05:07:44;96967.55;;;7.83;72.23
34205;BME280;20471;49.680;20.074;2023-04-29T05:10:10;96963.90;;;7.81;72.32
34205;BME280;20471;49.680;20.074;2023-04-29T05:12:37;96972.30;;;7.82;72.47
34205;BME280;20471;49.680;20.074;2023-04-29T05:15:04;96969.06;;;7.81;72.58
34205;BME280;20471;49.680;20.074;2023-04-29T05:17:31;96970.42;;;7.80;72.79
34205;BME280;20471;49.680;20.074;2023-04-29T05:19:59;96971.82;;;7.80;72.79
34205;BME280;20471;49.680;20.074;2023-04-29T05:22:26;96972.36;;;7.81;72.65
34205;BME280;20471;49.680;20.074;2023-04-29T05:24:52;96969.64;;;7.82;72.75
34205;BME280;20471;49.680;20.074;2023-04-29T05:27:20;96973.40;;;7.80;72.91
34205;BME280;20471;49.680;20.074;2023-04-29T05:29:46;96977.13;;;7.81;73.09
34205;BME280;20471;49.680;20.074;2023-04-29T05:32:13;96975.34;;;7.81;73.19
34205;BME280;20471;49.680;20.074;2023-04-29T05:34:40;96967.48;;;7.80;73.28
34205;BME280;20471;49.680;20.074;2023-04-29T05:37:07;96967.13;;;7.82;73.27
34205;BME280;20471;49.680;20.074;2023-04-29T05:39:33;96970.23;;;7.84;73.31
34205;BME280;20471;49.680;20.074;2023-04-29T05:42:00;96973.15;;;7.88;73.27
34205;BME280;20471;49.680;20.074;2023-04-29T05:44:27;96974.52;;;7.91;73.40
34205;BME280;20471;49.680;20.074;2023-04-29T05:46:53;96973.62;;;7.92;73.58
34205;BME280;20471;49.680;20.074;2023-04-29T05:49:20;96976.40;;;7.93;73.65
34205;BME280;20471;49.680;20.074;2023-04-29T05:51:47;96979.36;;;7.97;73.55
34205;BME280;20471;49.680;20.074;2023-04-29T05:54:13;96978.20;;;8.01;73.46
34205;BME280;20471;49.680;20.074;2023-04-29T05:56:40;96979.35;;;8.05;73.61
34205;BME280;20471;49.680;20.074;2023-04-29T05:59:07;96976.02;;;8.09;73.76
34205;BME280;20471;49.680;20.074;2023-04-29T06:01:34;96974.02;;;8.13;73.85
34205;BME280;20471;49.680;20.074;2023-04-29T06:04:01;96974.06;;;8.18;73.74
34205;BME280;20471;49.680;20.074;2023-04-29T06:06:27;96972.60;;;8.22;73.70
34205;BME280;20471;49.680;20.074;2023-04-29T06:08:54;96972.80;;;8.26;73.74
34205;BME280;20471;49.680;20.074;2023-04-29T06:11:21;96974.73;;;8.30;73.73
34205;BME280;20471;49.680;20.074;2023-04-29T06:13:48;96974.08;;;8.35;73.71
34205;BME280;20471;49.680;20.074;2023-04-29T06:16:15;96971.64;;;8.40;73.80
34205;BME280;20471;49.680;20.074;2023-04-29T06:18:41;96971.66;;;8.45;73.71
34205;BME280;20471;49.680;20.074;2023-04-29T06:21:08;96971.70;;;8.47;73.42
34205;BME280;20471;49.680;20.074;2023-04-29T06:23:35;96971.24;;;8.49;73.31
34205;BME280;20471;49.680;20.074;2023-04-29T06:26:01;96972.48;;;8.52;73.23
34205;BME280;20471;49.680;20.074;2023-04-29T06:28:28;96971.45;;;8.53;73.24
34205;BME280;20471;49.680;20.074;2023-04-29T06:30:55;96973.79;;;8.55;73.04
34205;BME280;20471;49.680;20.074;2023-04-29T06:33:22;96973.59;;;8.57;73.26
34205;BME280;20471;49.680;20.074;2023-04-29T06:35:48;96972.59;;;8.63;73.22
34205;BME280;20471;49.680;20.074;2023-04-29T06:38:15;96976.08;;;8.66;73.07
34205;BME280;20471;49.680;20.074;2023-04-29T06:40:42;96978.96;;;8.69;73.16
34205;BME280;20471;49.680;20.074;2023-04-29T06:43:09;96975.98;;;8.71;73.25
34205;BME280;20471;49.680;20.074;2023-04-29T06:45:36;96980.11;;;8.76;73.05
34205;BME280;20471;49.680;20.074;2023-04-29T06:48:02;96976.06;;;8.80;73.13
34205;BME280;20471;49.680;20.074;2023-04-29T06:50:29;96977.77;;;8.83;73.28
34205;BME280;20471;49.680;20.074;2023-04-29T06:52:56;96975.11;;;8.85;73.21
34205;BME280;20471;49.680;20.074;2023-04-29T06:55:23;96974.25;;;8.87;73.09
34205;BME280;20471;49.680;20.074;2023-04-29T06:57:49;96977.60;;;8.90;73.15
34205;BME280;20471;49.680;20.074;2023-04-29T07:00:17;96972.45;;;8.92;73.24
34205;BME280;20471;49.680;20.074;2023-04-29T07:02:45;96974.63;;;8.96;73.25
34205;BME280;20471;49.680;20.074;2023-04-29T07:05:12;96970.83;;;8.99;73.33
34205;BME280;20471;49.680;20.074;2023-04-29T07:07:39;96969.98;;;9.02;73.43
34205;BME280;20471;49.680;20.074;2023-04-29T07:10:06;96970.38;;;9.08;73.51
34205;BME280;20471;49.680;20.074;2023-04-29T07:12:32;96969.66;;;9.13;73.38
34205;BME280;20471;49.680;20.074;2023-04-29T07:14:59;96975.16;;;9.16;73.42
34205;BME280;20471;49.680;20.074;2023-04-29T07:17:28;96975.83;;;9.20;73.20
34205;BME280;20471;49.680;20.074;2023-04-29T07:19:55;96976.61;;;9.22;73.20
34205;BME280;20471;49.680;20.074;2023-04-29T07:22:22;96979.92;;;9.24;73.26
34205;BME280;20471;49.680;20.074;2023-04-29T07:24:52;96981.70;;;9.25;73.14
34205;BME280;20471;49.680;20.074;2023-04-29T07:27:19;96978.39;;;9.27;73.13
34205;BME280;20471;49.680;20.074;2023-04-29T07:29:46;96977.02;;;9.28;73.10
34205;BME280;20471;49.680;20.074;2023-04-29T07:32:12;96974.58;;;9.29;73.17
34205;BME280;20471;49.680;20.074;2023-04-29T07:34:40;96973.88;;;9.32;73.01
34205;BME280;20471;49.680;20.074;2023-04-29T07:37:07;96971.14;;;9.37;72.96
34205;BME280;20471;49.680;20.074;2023-04-29T07:39:34;96967.13;;;9.42;73.12
34205;BME280;20471;49.680;20.074;2023-04-29T07:42:01;96970.54;;;9.49;73.09
34205;BME280;20471;49.680;20.074;2023-04-29T07:44:29;96974.35;;;9.54;72.85
34205;BME280;20471;49.680;20.074;2023-04-29T07:46:56;96969.39;;;9.60;72.86
34205;BME280;20471;49.680;20.074;2023-04-29T07:49:22;96970.59;;;9.67;72.94
34205;BME280;20471;49.680;20.074;2023-04-29T07:51:50;96970.65;;;9.74;73.11
34205;BME280;20471;49.680;20.074;2023-04-29T07:54:17;96970.81;;;9.81;72.90
34205;BME280;20471;49.680;20.074;2023-04-29T07:56:45;96966.70;;;9.87;72.91
34205;BME280;20471;49.680;20.074;2023-04-29T07:59:11;96966.48;;;9.96;72.91
34205;BME280;20471;49.680;20.074;2023-04-29T08:01:42;96961.17;;;10.08;72.95
34205;BME280;20471;49.680;20.074;2023-04-29T08:04:08;96963.08;;;10.22;72.97
34205;BME280;20471;49.680;20.074;2023-04-29T08:06:35;96959.23;;;10.41;72.85
34205;BME280;20471;49.680;20.074;2023-04-29T08:09:02;96960.06;;;10.61;72.42
34205;BME280;20471;49.680;20.074;2023-04-29T08:11:28;96956.05;;;10.73;72.44
34205;BME280;20471;49.680;20.074;2023-04-29T08:13:55;96957.98;;;10.88;72.50
34205;BME280;20471;49.680;20.074;2023-04-29T08:16:24;96956.07;;;11.00;72.01
34205;BME280;20471;49.680;20.074;2023-04-29T08:18:52;96959.73;;;11.10;71.20
34205;BME280;20471;49.680;20.074;2023-04-29T08:21:19;96960.72;;;11.22;70.93
34205;BME280;20471;49.680;20.074;2023-04-29T08:23:46;96957.70;;;11.37;70.83
34205;BME280;20471;49.680;20.074;2023-04-29T08:26:12;96953.36;;;11.52;70.60
34205;BME280;20471;49.680;20.074;2023-04-29T08:28:39;96953.23;;;11.65;70.40
34205;BME280;20471;49.680;20.074;2023-04-29T08:31:06;96957.65;;;11.70;69.93
34205;BME280;20471;49.680;20.074;2023-04-29T08:33:33;96960.56;;;11.76;69.76
34205;BME280;20471;49.680;20.074;2023-04-29T08:36:01;96958.52;;;11.84;69.11
34205;BME280;20471;49.680;20.074;2023-04-29T08:38:29;96957.58;;;11.89;69.00
34205;BME280;20471;49.680;20.074;2023-04-29T08:40:56;96958.76;;;11.99;68.91
34205;BME280;20471;49.680;20.074;2023-04-29T08:43:23;96954.59;;;12.07;68.38
34205;BME280;20471;49.680;20.074;2023-04-29T08:45:51;96947.48;;;12.15;68.46
34205;BME280;20471;49.680;20.074;2023-04-29T08:48:18;96947.67;;;12.29;68.17
34205;BME280;20471;49.680;20.074;2023-04-29T08:50:45;96944.95;;;12.54;67.84
34205;BME280;20471;49.680;20.074;2023-04-29T08:53:13;96945.78;;;12.82;67.67
34205;BME280;20471;49.680;20.074;2023-04-29T08:55:48;96948.15;;;12.98;66.90
34205;BME280;20471;49.680;20.074;2023-04-29T08:58:15;96948.13;;;13.10;66.34
34205;BME280;20471;49.680;20.074;2023-04-29T09:00:43;96942.98;;;13.19;66.23
34205;BME280;20471;49.680;20.074;2023-04-29T09:03:21;96944.11;;;13.23;65.56
34205;BME280;20471;49.680;20.074;2023-04-29T09:05:55;96940.77;;;13.27;64.94
34205;BME280;20471;49.680;20.074;2023-04-29T09:08:25;96934.88;;;13.34;64.69
34205;BME280;20471;49.680;20.074;2023-04-29T09:10:52;96934.31;;;13.41;64.29
34205;BME280;20471;49.680;20.074;2023-04-29T09:13:26;96929.52;;;13.45;63.91
34205;BME280;20471;49.680;20.074;2023-04-29T09:15:53;96929.27;;;13.53;63.75
34205;BME280;20471;49.680;20.074;2023-04-29T09:18:43;96928.02;;;13.62;63.65
34205;BME280;20471;49.680;20.074;2023-04-29T09:21:15;96924.51;;;13.68;63.07
34205;BME280;20471;49.680;20.074;2023-04-29T09:23:43;96928.30;;;13.70;62.55
34205;BME280;20471;49.680;20.074;2023-04-29T09:26:10;96924.59;;;13.72;62.51
34205;BME280;20471;49.680;20.074;2023-04-29T09:28:37;96928.02;;;13.77;62.23
34205;BME280;20471;49.680;20.074;2023-04-29T09:31:06;96925.05;;;13.83;61.70
34205;BME280;20471;49.680;20.074;2023-04-29T09:33:50;96923.14;;;13.88;61.50
34205;BME280;20471;49.680;20.074;2023-04-29T09:36:37;96921.93;;;13.99;61.17
34205;BME280;20471;49.680;20.074;2023-04-29T09:39:05;96918.39;;;14.08;61.11
34205;BME280;20471;49.680;20.074;2023-04-29T09:41:40;96913.29;;;14.20;60.85
34205;BME280;20471;49.680;20.074;2023-04-29T09:44:08;96911.81;;;14.36;60.39
34205;BME280;20471;49.680;20.074;2023-04-29T09:46:35;96907.81;;;14.68;60.57
34205;BME280;20471;49.680;20.074;2023-04-29T09:49:03;96910.35;;;15.26;60.42
34205;BME280;20471;49.680;20.074;2023-04-29T09:51:30;96907.03;;;15.81;59.71
34205;BME280;20471;49.680;20.074;2023-04-29T09:54:19;96899.70;;;16.16;59.16
34205;BME280;20471;49.680;20.074;2023-04-29T09:56:50;96900.12;;;16.41;58.07
34205;BME280;20471;49.680;20.074;2023-04-29T09:59:18;96894.48;;;16.51;57.62
34205;BME280;20471;49.680;20.074;2023-04-29T10:01:47;96891.61;;;16.53;57.06
34205;BME280;20471;49.680;20.074;2023-04-29T10:04:16;96893.23;;;16.50;56.39
34205;BME280;20471;49.680;20.074;2023-04-29T10:06:44;96890.37;;;16.47;56.17
34205;BME280;20471;49.680;20.074;2023-04-29T10:09:15;96890.22;;;16.43;55.74
34205;BME280;20471;49.680;20.074;2023-04-29T10:11:44;96889.04;;;16.32;54.96
34205;BME280;20471;49.680;20.074;2023-04-29T10:14:12;96885.19;;;16.14;54.25
34205;BME280;20471;49.680;20.074;2023-04-29T10:16:58;96882.37;;;16.02;54.14
34205;BME280;20471;49.680;20.074;2023-04-29T10:19:54;96885.52;;;15.96;53.79
34205;BME280;20471;49.680;20.074;2023-04-29T10:22:33;96886.27;;;15.95;53.82
34205;BME280;20471;49.680;20.074;2023-04-29T10:25:03;96881.23;;;16.08;54.01
34205;BME280;20471;49.680;20.074;2023-04-29T10:27:32;96882.23;;;16.26;53.72
34205;BME280;20471;49.680;20.074;2023-04-29T10:30:00;96879.38;;;16.42;53.33
34205;BME280;20471;49.680;20.074;2023-04-29T10:32:30;96875.30;;;16.64;53.01
34205;BME280;20471;49.680;20.074;2023-04-29T10:34:58;96869.59;;;17.02;53.03
34205;BME280;20471;49.680;20.074;2023-04-29T10:37:26;96862.77;;;17.54;52.51
34205;BME280;20471;49.680;20.074;2023-04-29T10:40:12;96860.67;;;17.92;51.92
34205;BME280;20471;49.680;20.074;2023-04-29T10:50:32;96843.15;;;18.42;50.28
34205;BME280;20471;49.680;20.074;2023-04-29T10:53:03;96843.24;;;18.49;49.84
34205;BME280;20471;49.680;20.074;2023-04-29T10:55:31;96838.00;;;18.56;49.61
34205;BME280;20471;49.680;20.074;2023-04-29T10:58:02;96838.95;;;18.65;49.34
34205;BME280;20471;49.680;20.074;2023-04-29T11:00:32;96837.41;;;18.68;49.29
34205;BME280;20471;49.680;20.074;2023-04-29T11:03:00;96838.89;;;18.63;48.95
34205;BME280;20471;49.680;20.074;2023-04-29T11:05:31;96837.14;;;18.46;48.27
34205;BME280;20471;49.680;20.074;2023-04-29T11:08:11;96835.02;;;18.33;48.32
34205;BME280;20471;49.680;20.074;2023-04-29T11:10:42;96837.42;;;18.22;47.91
34205;BME280;20471;49.680;20.074;2023-04-29T11:15:53;96834.98;;;18.09;48.05
34205;BME280;20471;49.680;20.074;2023-04-29T11:18:20;96832.96;;;18.10;48.07
34205;BME280;20471;49.680;20.074;2023-04-29T11:23:37;96835.35;;;17.95;48.01
34205;BME280;20471;49.680;20.074;2023-04-29T11:26:06;96832.97;;;17.73;47.96
34205;BME280;20471;49.680;20.074;2023-04-29T11:28:33;96832.36;;;17.58;47.97
34205;BME280;20471;49.680;20.074;2023-04-29T11:30:59;96835.13;;;17.50;48.01
34205;BME280;20471;49.680;20.074;2023-04-29T11:33:31;96834.52;;;17.45;48.15
34205;BME280;20471;49.680;20.074;2023-04-29T11:35:59;96833.67;;;17.37;47.98
34205;BME280;20471;49.680;20.074;2023-04-29T11:38:29;96834.73;;;17.27;48.33
34205;BME280;20471;49.680;20.074;2023-04-29T11:40:57;96836.53;;;17.24;48.15
34205;BME280;20471;49.680;20.074;2023-04-29T11:43:27;96834.46;;;17.26;48.41
34205;BME280;20471;49.680;20.074;2023-04-29T11:45:54;96834.77;;;17.35;48.56
34205;BME280;20471;49.680;20.074;2023-04-29T11:48:22;96835.33;;;17.41;48.55
34205;BME280;20471;49.680;20.074;2023-04-29T11:50:56;96831.71;;;17.41;48.11
34205;BME280;20471;49.680;20.074;2023-04-29T11:53:24;96838.70;;;17.37;48.19
34205;BME280;20471;49.680;20.074;2023-04-29T11:55:53;96841.67;;;17.30;47.95
34205;BME280;20471;49.680;20.074;2023-04-29T11:58:20;96838.77;;;17.25;48.12
34205;BME280;20471;49.680;20.074;2023-04-29T12:00:47;96839.60;;;17.18;48.04
34205;BME280;20471;49.680;20.074;2023-04-29T12:03:16;96838.28;;;17.12;48.23
34205;BME280;20471;49.680;20.074;2023-04-29T12:05:52;96844.70;;;17.10;48.28
34205;BME280;20471;49.680;20.074;2023-04-29T12:08:24;96849.46;;;17.02;47.90
34205;BME280;20471;49.680;20.074;2023-04-29T12:10:52;96852.09;;;16.90;47.80
34205;BME280;20471;49.680;20.074;2023-04-29T12:13:27;96853.45;;;16.78;48.07
34205;BME280;20471;49.680;20.074;2023-04-29T12:15:56;96854.70;;;16.70;48.00
34205;BME280;20471;49.680;20.074;2023-04-29T12:18:23;96853.03;;;16.60;48.06
34205;BME280;20471;49.680;20.074;2023-04-29T12:20:52;96854.55;;;16.52;48.06
34205;BME280;20471;49.680;20.074;2023-04-29T12:23:22;96856.52;;;16.46;48.17
34205;BME280;20471;49.680;20.074;2023-04-29T12:25:54;96855.57;;;16.41;48.29
34205;BME280;20471;49.680;20.074;2023-04-29T12:28:22;96856.59;;;16.39;48.24
34205;BME280;20471;49.680;20.074;2023-04-29T12:30:51;96860.48;;;16.36;48.52
34205;BME280;20471;49.680;20.074;2023-04-29T12:35:48;96855.36;;;16.20;48.40
34205;BME280;20471;49.680;20.074;2023-04-29T12:38:40;96853.52;;;16.09;48.58
34205;BME280;20471;49.680;20.074;2023-04-29T12:41:08;96849.94;;;15.98;48.62
34205;BME280;20471;49.680;20.074;2023-04-29T12:43:36;96846.45;;;15.85;48.46
34205;BME280;20471;49.680;20.074;2023-04-29T12:46:03;96843.42;;;15.76;48.73
34205;BME280;20471;49.680;20.074;2023-04-29T12:48:31;96840.66;;;15.73;48.95
34205;BME280;20471;49.680;20.074;2023-04-29T12:51:02;96839.21;;;15.68;48.98
34205;BME280;20471;49.680;20.074;2023-04-29T12:53:29;96840.91;;;15.65;49.10
34205;BME280;20471;49.680;20.074;2023-04-29T12:55:57;96843.05;;;15.62;49.12
34205;BME280;20471;49.680;20.074;2023-04-29T12:58:23;96841.38;;;15.57;49.04
34205;BME280;20471;49.680;20.074;2023-04-29T13:00:50;96842.61;;;15.55;49.22
34205;BME280;20471;49.680;20.074;2023-04-29T13:03:17;96843.23;;;15.56;49.54
34205;BME280;20471;49.680;20.074;2023-04-29T13:05:44;96841.08;;;15.57;49.63
34205;BME280;20471;49.680;20.074;2023-04-29T13:08:11;96840.58;;;15.57;49.61
34205;BME280;20471;49.680;20.074;2023-04-29T13:10:38;96837.33;;;15.55;49.43
34205;BME280;20471;49.680;20.074;2023-04-29T13:13:04;96836.14;;;15.52;49.61
34205;BME280;20471;49.680;20.074;2023-04-29T13:15:34;96833.85;;;15.53;49.71
34205;BME280;20471;49.680;20.074;2023-04-29T13:18:01;96836.82;;;15.57;49.82
34205;BME280;20471;49.680;20.074;2023-04-29T13:20:28;96839.88;;;15.58;49.95
34205;BME280;20471;49.680;20.074;2023-04-29T13:22:55;96841.68;;;15.60;50.20
34205;BME280;20471;49.680;20.074;2023-04-29T13:25:22;96841.23;;;15.63;49.99
34205;BME280;20471;49.680;20.074;2023-04-29T13:27:49;96838.14;;;15.60;49.74
34205;BME280;20471;49.680;20.074;2023-04-29T13:30:15;96835.30;;;15.58;49.92